Time;durP1;ratioP1;P1;durP2;ratioP2;P2;SDS_P1;SDS_P2;PMS_P1;PMS_P2;Temp;Humidity;BMP_temperature;BMP_pressure;BME280_temperature;BME280_humidity;BME280_pressure;Samples;Min_cycle;Max_cycle;Signal;HPM_P1;HPM_P2
2023/08/07 00:02:03;;;;;;;2.95;1.80;;;19.50;58.40;;;;;;5006711;28;114230;-78
2023/08/07 00:04:31;;;;;;;2.92;1.98;;;19.50;58.50;;;;;;5006660;28;114929;-78
2023/08/07 00:06:58;;;;;;;4.15;1.90;;;19.50;58.50;;;;;;5006521;28;114628;-79
2023/08/07 00:09:25;;;;;;;3.40;2.17;;;19.50;58.50;;;;;;5007527;28;114060;-80
2023/08/07 00:11:52;;;;;;;3.53;1.77;;;19.50;58.50;;;;;;5007712;28;114116;-79
2023/08/07 00:14:20;;;;;;;2.88;2.13;;;19.50;58.50;;;;;;5006022;28;115244;-79
2023/08/07 00:16:47;;;;;;;3.72;1.92;;;19.50;58.10;;;;;;5006691;28;114591;-79
2023/08/07 00:19:14;;;;;;;3.63;2.10;;;19.40;58.30;;;;;;5006346;28;114438;-78
2023/08/07 00:21:41;;;;;;;3.00;2.17;;;19.40;58.50;;;;;;5006500;28;114361;-79
2023/08/07 00:24:10;;;;;;;4.07;2.17;;;19.40;58.50;;;;;;5005119;28;115051;-79
2023/08/07 00:26:37;;;;;;;2.67;1.77;;;19.40;58.40;;;;;;5006314;28;115861;-78
2023/08/07 00:29:04;;;;;;;2.45;1.63;;;19.40;58.60;;;;;;5007381;28;114294;-78
2023/08/07 00:31:31;;;;;;;2.60;1.80;;;19.40;58.60;;;;;;5006784;28;114391;-78
2023/08/07 00:33:59;;;;;;;3.42;1.80;;;19.40;58.40;;;;;;5004282;28;115059;-79
2023/08/07 00:36:28;;;;;;;3.60;2.00;;;19.40;58.60;;;;;;4988052;28;115884;-79
2023/08/07 00:38:56;;;;;;;2.90;1.70;;;19.40;58.60;;;;;;5006470;28;114131;-79
2023/08/07 00:41:23;;;;;;;3.45;1.85;;;19.40;58.50;;;;;;5005673;28;114537;-79
2023/08/07 00:43:50;;;;;;;2.47;1.67;;;19.40;58.60;;;;;;5004955;28;115264;-79
2023/08/07 00:46:17;;;;;;;3.63;2.10;;;19.30;58.70;;;;;;5004835;28;114757;-80
2023/08/07 00:48:45;;;;;;;2.60;1.60;;;19.30;58.70;;;;;;5005719;28;114358;-78
2023/08/07 00:51:12;;;;;;;2.60;1.80;;;19.30;58.80;;;;;;5005956;28;114265;-79
2023/08/07 00:53:42;;;;;;;2.88;2.03;;;19.30;58.80;;;;;;4956353;28;115717;-78
2023/08/07 00:56:09;;;;;;;2.85;1.80;;;19.30;58.70;;;;;;4988805;28;115033;-78
2023/08/07 00:58:36;;;;;;;3.45;1.95;;;19.30;58.80;;;;;;5005580;28;114773;-80
2023/08/07 01:01:04;;;;;;;2.95;1.50;;;19.30;58.90;;;;;;5005747;28;114116;-79
2023/08/07 01:03:32;;;;;;;3.25;1.77;;;19.30;58.90;;;;;;4987642;28;116299;-79
2023/08/07 01:05:59;;;;;;;3.15;1.67;;;19.30;59.00;;;;;;5004545;28;114580;-80
2023/08/07 01:08:26;;;;;;;3.85;2.10;;;19.20;59.10;;;;;;5006624;28;115784;-79
2023/08/07 01:11:17;;;;;;;2.05;1.40;;;19.20;59.10;;;;;;5005690;28;114337;-79
2023/08/07 01:13:59;;;;;;;3.50;1.90;;;19.20;59.30;;;;;;5004731;28;114293;-79
2023/08/07 01:16:34;;;;;;;2.70;1.85;;;19.10;59.40;;;;;;5005766;28;114625;-79
2023/08/07 01:19:02;;;;;;;2.67;1.80;;;19.00;59.60;;;;;;5004275;28;114455;-78
2023/08/07 01:21:30;;;;;;;3.67;1.60;;;19.00;59.60;;;;;;5005897;28;114167;-79
2023/08/07 01:23:59;;;;;;;4.30;1.85;;;18.90;59.70;;;;;;4987862;28;114972;-78
2023/08/07 01:26:26;;;;;;;2.75;1.50;;;18.90;59.80;;;;;;4987884;28;114677;-79
2023/08/07 01:29:12;;;;;;;2.40;1.50;;;18.90;59.90;;;;;;5004726;28;114239;-78
2023/08/07 01:31:39;;;;;;;2.92;1.70;;;18.90;59.70;;;;;;5005431;28;114413;-77
2023/08/07 01:34:08;;;;;;;4.55;1.52;;;18.80;59.90;;;;;;4971146;28;117205;-78
2023/08/07 01:36:35;;;;;;;2.17;1.45;;;18.80;60.00;;;;;;4986716;28;115794;-78
2023/08/07 01:39:03;;;;;;;2.00;1.33;;;18.80;60.10;;;;;;5005056;28;114388;-79
2023/08/07 01:41:30;;;;;;;4.30;1.55;;;18.90;59.90;;;;;;4989058;28;114195;-79
2023/08/07 01:43:57;;;;;;;7.85;1.80;;;18.90;59.90;;;;;;5004289;28;115027;-79
2023/08/07 01:46:24;;;;;;;3.65;1.30;;;19.00;59.70;;;;;;4987837;28;114521;-78
2023/08/07 01:48:53;;;;;;;2.88;1.30;;;19.00;59.80;;;;;;5006085;28;114133;-78
2023/08/07 01:51:21;;;;;;;2.78;1.42;;;19.00;59.80;;;;;;5005079;28;114470;-78
2023/08/07 01:53:49;;;;;;;3.38;1.50;;;18.90;59.80;;;;;;5003044;28;117738;-78
2023/08/07 01:56:16;;;;;;;1.90;1.25;;;18.90;60.10;;;;;;4987223;28;117181;-79
2023/08/07 01:58:43;;;;;;;3.80;1.50;;;18.80;60.20;;;;;;4988130;28;114469;-78
2023/08/07 02:01:10;;;;;;;1.77;1.10;;;18.80;60.40;;;;;;5004869;28;114693;-78
2023/08/07 02:03:37;;;;;;;2.97;1.35;;;18.80;60.30;;;;;;5003797;28;114944;-79
2023/08/07 02:06:05;;;;;;;2.10;1.30;;;18.80;60.40;;;;;;5003911;28;114622;-79
2023/08/07 02:08:32;;;;;;;3.35;1.35;;;18.80;60.30;;;;;;5004888;28;114162;-80
2023/08/07 02:11:01;;;;;;;3.25;1.17;;;18.80;60.20;;;;;;5004965;28;114273;-79
2023/08/07 02:13:28;;;;;;;1.88;1.20;;;18.80;60.20;;;;;;5003970;28;114867;-78
2023/08/07 02:15:55;;;;;;;1.92;1.30;;;18.90;60.30;;;;;;5004716;28;114509;-79
2023/08/07 02:18:22;;;;;;;2.65;1.20;;;18.90;60.10;;;;;;5005381;28;114540;-78
2023/08/07 02:20:51;;;;;;;1.90;1.30;;;19.00;60.10;;;;;;5004475;28;114403;-80
2023/08/07 02:23:18;;;;;;;1.80;1.08;;;18.90;59.90;;;;;;4987164;28;115039;-78
2023/08/07 02:25:45;;;;;;;2.75;1.35;;;18.90;60.10;;;;;;5004905;28;114540;-78
2023/08/07 02:28:13;;;;;;;2.38;0.95;;;18.80;60.10;;;;;;5004334;28;114323;-80
2023/08/07 02:30:40;;;;;;;2.08;1.00;;;18.80;60.20;;;;;;5007445;28;114454;-77
2023/08/07 02:33:07;;;;;;;4.10;1.20;;;18.80;60.10;;;;;;5007045;28;114930;-78
2023/08/07 02:35:34;;;;;;;3.03;1.10;;;18.70;60.10;;;;;;5008036;28;114713;-78
2023/08/07 02:38:01;;;;;;;3.25;1.13;;;18.60;60.40;;;;;;5008127;28;114566;-78
2023/08/07 02:40:30;;;;;;;2.00;1.20;;;18.50;60.60;;;;;;4974583;28;114232;-78
2023/08/07 02:42:57;;;;;;;1.60;1.10;;;18.50;60.80;;;;;;5007866;28;115091;-79
2023/08/07 02:45:26;;;;;;;3.05;1.00;;;18.50;60.90;;;;;;5006691;28;114675;-78
2023/08/07 02:47:53;;;;;;;2.75;1.20;;;18.60;60.80;;;;;;5008981;28;114213;-78
2023/08/07 02:50:20;;;;;;;2.63;1.00;;;18.70;60.70;;;;;;5008742;28;114633;-79
2023/08/07 02:52:47;;;;;;;2.10;0.80;;;18.70;60.60;;;;;;5006653;28;114883;-78
2023/08/07 02:55:14;;;;;;;2.10;0.98;;;18.80;60.30;;;;;;5007440;28;114984;-78
2023/08/07 02:57:41;;;;;;;1.48;0.70;;;18.80;60.30;;;;;;5007511;28;114446;-78
2023/08/07 03:00:09;;;;;;;1.50;0.90;;;18.80;59.80;;;;;;5008064;28;114280;-77
2023/08/07 03:02:36;;;;;;;1.50;0.82;;;18.80;59.90;;;;;;4990243;28;114888;-78
2023/08/07 03:05:03;;;;;;;2.38;0.90;;;18.80;60.20;;;;;;5007679;28;114564;-78
2023/08/07 03:07:30;;;;;;;1.60;0.80;;;18.70;60.20;;;;;;5007004;28;114267;-79
2023/08/07 03:09:57;;;;;;;2.45;0.82;;;18.70;60.10;;;;;;5007376;28;114356;-79
2023/08/07 03:12:24;;;;;;;2.33;0.90;;;18.60;60.20;;;;;;5007838;28;114852;-79
2023/08/07 03:14:51;;;;;;;1.23;0.80;;;18.70;60.50;;;;;;5007680;28;114843;-78
2023/08/07 03:17:20;;;;;;;1.30;0.80;;;18.70;60.40;;;;;;5008600;28;114482;-78
2023/08/07 03:19:49;;;;;;;1.98;0.70;;;18.70;60.20;;;;;;5007010;28;114501;-78
2023/08/07 03:22:16;;;;;;;2.33;0.80;;;18.70;59.80;;;;;;5007573;28;116149;-78
2023/08/07 03:24:47;;;;;;;6.47;0.90;;;18.60;60.20;;;;;;5006292;28;114766;-79
2023/08/07 03:27:15;;;;;;;1.55;0.60;;;18.50;60.20;;;;;;5007501;28;114164;-78
2023/08/07 03:29:42;;;;;;;2.13;0.82;;;18.50;60.10;;;;;;5008156;28;114372;-77
2023/08/07 03:32:12;;;;;;;2.05;0.77;;;18.50;60.20;;;;;;5005744;28;114815;-79
2023/08/07 03:34:39;;;;;;;1.10;0.50;;;18.50;60.30;;;;;;4989814;28;114822;-77
2023/08/07 03:37:07;;;;;;;2.50;0.63;;;18.50;60.20;;;;;;5006677;28;114322;-78
2023/08/07 03:39:34;;;;;;;1.90;0.70;;;18.40;60.10;;;;;;5006895;28;114593;-78
2023/08/07 03:42:03;;;;;;;1.73;0.63;;;18.40;60.50;;;;;;4971999;28;115946;-78
2023/08/07 03:44:33;;;;;;;1.40;0.60;;;18.50;60.00;;;;;;4989578;28;114629;-79
2023/08/07 03:47:00;;;;;;;0.68;0.50;;;18.50;59.50;;;;;;4973354;28;114432;-77
2023/08/07 03:49:27;;;;;;;2.50;0.60;;;18.50;59.80;;;;;;4990598;28;114453;-79
2023/08/07 03:51:54;;;;;;;0.73;0.50;;;18.30;59.50;;;;;;4989066;28;116475;-78
2023/08/07 03:54:21;;;;;;;1.40;0.85;;;18.30;60.00;;;;;;5006416;28;115128;-79
2023/08/07 03:56:50;;;;;;;1.80;0.57;;;18.20;60.40;;;;;;5006441;28;114353;-80
2023/08/07 03:59:18;;;;;;;2.38;0.85;;;18.20;60.40;;;;;;5007078;28;114459;-78
2023/08/07 04:01:45;;;;;;;2.05;1.15;;;18.20;60.40;;;;;;5006275;28;115503;-79
2023/08/07 04:04:12;;;;;;;1.88;1.13;;;18.20;60.50;;;;;;5006202;28;115235;-79
2023/08/07 04:06:39;;;;;;;2.67;0.55;;;18.20;60.60;;;;;;5007117;28;114596;-77
2023/08/07 04:09:07;;;;;;;0.98;0.60;;;18.20;59.30;;;;;;5007840;28;114346;-77
2023/08/07 04:11:34;;;;;;;1.25;0.60;;;18.10;59.60;;;;;;5007069;28;114892;-78
2023/08/07 04:14:02;;;;;;;1.88;1.15;;;18.00;59.10;;;;;;4989564;28;117440;-79
2023/08/07 04:16:31;;;;;;;2.33;1.50;;;17.90;60.70;;;;;;5007961;28;114159;-78
2023/08/07 04:18:58;;;;;;;1.23;0.80;;;17.90;61.30;;;;;;5006391;28;114289;-77
2023/08/07 04:21:26;;;;;;;1.17;0.80;;;18.00;60.40;;;;;;5004910;28;114982;-78
2023/08/07 04:23:53;;;;;;;1.95;0.90;;;18.10;60.10;;;;;;5005555;28;114736;-79
2023/08/07 04:26:20;;;;;;;1.55;0.85;;;18.10;60.50;;;;;;5006600;28;114547;-79
2023/08/07 04:28:47;;;;;;;2.30;1.20;;;18.10;60.20;;;;;;5007414;28;114386;-78
2023/08/07 04:31:14;;;;;;;2.15;0.98;;;18.10;60.20;;;;;;5005634;28;115091;-79
2023/08/07 04:33:41;;;;;;;1.85;0.90;;;18.20;60.00;;;;;;5005936;28;114729;-78
2023/08/07 04:36:08;;;;;;;1.25;0.75;;;18.20;59.80;;;;;;5006278;28;114264;-78
2023/08/07 04:38:35;;;;;;;1.15;0.70;;;18.30;59.60;;;;;;5006918;28;114391;-79
2023/08/07 04:41:03;;;;;;;1.40;0.77;;;18.30;59.70;;;;;;5005881;28;115036;-78
2023/08/07 04:43:30;;;;;;;1.15;0.50;;;18.30;59.90;;;;;;5006013;28;114741;-78
2023/08/07 04:45:57;;;;;;;0.88;0.60;;;18.40;59.00;;;;;;5007421;28;114323;-78
2023/08/07 04:48:25;;;;;;;1.95;0.68;;;18.50;59.60;;;;;;5007654;28;114272;-78
2023/08/07 04:50:52;;;;;;;1.10;0.60;;;18.50;59.50;;;;;;5005441;28;115327;-78
2023/08/07 04:53:19;;;;;;;0.73;0.32;;;18.60;58.80;;;;;;5006319;28;114600;-78
2023/08/07 04:55:46;;;;;;;1.13;0.40;;;18.50;58.50;;;;;;5007088;28;114211;-77
2023/08/07 04:58:13;;;;;;;0.70;0.47;;;18.50;58.90;;;;;;5007923;28;114763;-78
2023/08/07 05:00:40;;;;;;;3.42;0.90;;;18.40;59.20;;;;;;5005686;28;114864;-78
2023/08/07 05:03:07;;;;;;;2.70;0.68;;;18.50;59.60;;;;;;5006702;28;114193;-78
2023/08/07 05:05:34;;;;;;;1.88;0.50;;;18.50;59.50;;;;;;5007633;28;114234;-78
2023/08/07 05:08:02;;;;;;;1.05;0.60;;;18.50;58.80;;;;;;5007276;28;114667;-79
2023/08/07 05:10:29;;;;;;;0.85;0.40;;;18.50;59.10;;;;;;5005932;28;115194;-78
2023/08/07 05:12:56;;;;;;;0.70;0.50;;;18.40;58.60;;;;;;5004584;28;116684;-77
2023/08/07 05:15:24;;;;;;;1.38;0.57;;;18.30;59.50;;;;;;5005874;28;114275;-78
2023/08/07 05:17:51;;;;;;;1.27;0.50;;;18.30;59.50;;;;;;5006635;28;114414;-78
2023/08/07 05:20:18;;;;;;;2.40;0.50;;;18.30;59.40;;;;;;5005138;28;117876;-78
2023/08/07 05:22:45;;;;;;;1.65;0.60;;;18.30;59.30;;;;;;5005582;28;114746;-79
2023/08/07 05:25:15;;;;;;;1.38;0.63;;;18.30;59.10;;;;;;5005097;28;114321;-78
2023/08/07 05:27:45;;;;;;;0.57;0.47;;;18.20;59.80;;;;;;5006988;28;114291;-78
2023/08/07 05:30:13;;;;;;;1.83;0.50;;;18.20;59.90;;;;;;5005645;28;115216;-77
2023/08/07 05:32:40;;;;;;;1.67;0.50;;;18.10;59.90;;;;;;5004242;28;115297;-78
2023/08/07 05:35:08;;;;;;;1.30;0.50;;;18.10;59.70;;;;;;5004526;28;114211;-78
2023/08/07 05:37:35;;;;;;;0.65;0.43;;;18.20;60.00;;;;;;5006374;28;114270;-78
2023/08/07 05:40:02;;;;;;;0.55;0.35;;;18.20;59.90;;;;;;4987836;28;117963;-79
2023/08/07 05:42:29;;;;;;;0.40;0.30;;;18.30;59.20;;;;;;4987761;28;116833;-77
2023/08/07 05:44:57;;;;;;;0.88;0.40;;;18.30;59.80;;;;;;5006982;28;114181;-78
2023/08/07 05:47:24;;;;;;;2.17;0.88;;;18.40;59.50;;;;;;5005780;28;114544;-78
2023/08/07 05:49:51;;;;;;;1.10;0.60;;;18.50;59.00;;;;;;5006091;28;114876;-79
2023/08/07 05:52:19;;;;;;;1.27;0.60;;;18.50;59.30;;;;;;5006168;28;115122;-78
2023/08/07 05:54:46;;;;;;;1.60;0.70;;;18.60;58.80;;;;;;5006680;28;114150;-79
2023/08/07 05:57:13;;;;;;;1.25;0.40;;;18.70;58.80;;;;;;5005462;28;114402;-79
2023/08/07 05:59:40;;;;;;;0.98;0.38;;;18.70;58.50;;;;;;5004850;28;114849;-79
2023/08/07 06:02:07;;;;;;;1.10;0.50;;;18.60;58.60;;;;;;5004261;28;114630;-79
2023/08/07 06:04:34;;;;;;;1.50;0.55;;;18.60;58.70;;;;;;5004274;28;114394;-77
2023/08/07 06:07:01;;;;;;;0.75;0.40;;;18.50;58.80;;;;;;5006625;28;114367;-78
2023/08/07 06:09:28;;;;;;;0.90;0.45;;;18.50;58.30;;;;;;5004256;28;116082;-79
2023/08/07 06:11:55;;;;;;;1.40;0.50;;;18.50;58.50;;;;;;5005034;28;115396;-78
2023/08/07 06:14:25;;;;;;;1.65;0.50;;;18.30;58.60;;;;;;5005958;28;114405;-78
2023/08/07 06:16:52;;;;;;;0.90;0.40;;;18.30;58.80;;;;;;5006746;28;114296;-78
2023/08/07 06:19:22;;;;;;;1.00;0.50;;;18.30;58.40;;;;;;5005038;28;115133;-79
2023/08/07 06:21:58;;;;;;;2.60;0.60;;;18.20;59.10;;;;;;5007541;28;114648;-78
2023/08/07 06:24:26;;;;;;;0.90;0.50;;;18.30;58.90;;;;;;5005316;28;114455;-79
2023/08/07 06:26:54;;;;;;;3.47;0.90;;;18.40;58.90;;;;;;5005807;28;114434;-78
2023/08/07 06:29:21;;;;;;;2.83;0.75;;;18.40;58.90;;;;;;4987046;28;117413;-78
2023/08/07 06:31:48;;;;;;;1.52;0.60;;;18.30;59.00;;;;;;5004409;28;115227;-75
2023/08/07 06:34:15;;;;;;;1.50;0.68;;;18.30;58.50;;;;;;5005551;28;115070;-79
2023/08/07 06:36:42;;;;;;;2.45;0.75;;;18.20;59.40;;;;;;5005318;28;114463;-78
2023/08/07 06:39:09;;;;;;;2.33;0.90;;;18.20;59.50;;;;;;5003433;28;115397;-78
2023/08/07 06:41:37;;;;;;;2.33;1.10;;;18.30;59.60;;;;;;5004922;28;115034;-79
2023/08/07 06:44:04;;;;;;;3.95;0.73;;;18.30;59.60;;;;;;5005257;28;114026;-77
2023/08/07 06:46:31;;;;;;;2.83;0.90;;;18.30;59.50;;;;;;5005789;28;114357;-79
2023/08/07 06:48:58;;;;;;;3.50;1.30;;;18.30;59.40;;;;;;5002887;28;114804;-78
2023/08/07 06:51:25;;;;;;;2.00;0.88;;;18.40;59.40;;;;;;5003433;28;114620;-79
2023/08/07 06:53:52;;;;;;;2.20;1.20;;;18.50;59.10;;;;;;5005740;28;114410;-79
2023/08/07 06:56:20;;;;;;;2.53;1.10;;;18.50;59.20;;;;;;5004209;28;114290;-79
2023/08/07 06:58:47;;;;;;;2.05;1.00;;;18.60;59.10;;;;;;5004243;28;114929;-77
2023/08/07 07:01:14;;;;;;;1.92;0.80;;;18.60;59.10;;;;;;5002986;28;116811;-79
2023/08/07 07:03:41;;;;;;;2.60;1.17;;;18.70;59.00;;;;;;5004035;28;114357;-78
2023/08/07 07:06:08;;;;;;;2.22;1.20;;;18.70;58.80;;;;;;5004533;28;114386;-80
2023/08/07 07:08:35;;;;;;;2.53;1.30;;;18.70;58.70;;;;;;5003216;28;115092;-78
2023/08/07 07:11:04;;;;;;;3.22;1.00;;;18.70;58.70;;;;;;4986426;28;114633;-79
2023/08/07 07:13:31;;;;;;;2.53;0.90;;;18.70;58.80;;;;;;5004734;28;114097;-78
2023/08/07 07:15:58;;;;;;;1.67;0.73;;;18.80;58.70;;;;;;4987417;28;114427;-77
2023/08/07 07:18:25;;;;;;;2.30;1.02;;;18.70;58.80;;;;;;5007716;28;115412;-77
2023/08/07 07:21:00;;;;;;;1.13;0.70;;;18.70;58.60;;;;;;5007342;28;115126;-79
2023/08/07 07:23:27;;;;;;;1.63;0.80;;;18.80;58.40;;;;;;5007541;28;114292;-79
2023/08/07 07:25:54;;;;;;;2.20;0.95;;;18.70;58.20;;;;;;5008808;28;113962;-78
2023/08/07 07:28:22;;;;;;;2.28;0.70;;;18.60;58.40;;;;;;4989641;28;118869;-77
2023/08/07 07:30:50;;;;;;;2.15;0.70;;;18.60;58.40;;;;;;4990338;28;114767;-78
2023/08/07 07:33:17;;;;;;;2.78;1.08;;;18.60;58.20;;;;;;5007092;28;114430;-78
2023/08/07 07:35:44;;;;;;;2.17;1.08;;;18.50;58.20;;;;;;5008548;28;114325;-79
2023/08/07 07:38:11;;;;;;;1.02;0.60;;;18.50;58.70;;;;;;5006063;28;115073;-77
2023/08/07 07:40:38;;;;;;;2.60;0.85;;;18.50;58.20;;;;;;5006198;28;114661;-76
2023/08/07 07:43:05;;;;;;;2.03;0.73;;;18.50;58.40;;;;;;5007097;28;114479;-78
2023/08/07 07:45:35;;;;;;;1.30;0.57;;;18.40;58.50;;;;;;5008494;28;114394;-76
2023/08/07 07:48:03;;;;;;;1.58;0.88;;;18.40;58.60;;;;;;5007549;28;114929;-78
2023/08/07 07:50:30;;;;;;;1.75;0.85;;;18.30;58.90;;;;;;5007525;28;114322;-77
2023/08/07 07:52:57;;;;;;;2.53;1.20;;;18.20;59.10;;;;;;5008163;28;114170;-76
2023/08/07 07:55:25;;;;;;;3.05;1.42;;;18.20;59.50;;;;;;5007485;28;114409;-76
2023/08/07 07:57:53;;;;;;;0.57;0.40;;;18.20;59.80;;;;;;5006908;28;116179;-77
2023/08/07 08:00:22;;;;;;;1.60;0.80;;;18.20;59.50;;;;;;4989761;28;115537;-78
2023/08/07 08:02:49;;;;;;;1.42;0.60;;;18.30;59.70;;;;;;5006276;28;114271;-79
2023/08/07 08:05:16;;;;;;;1.67;0.80;;;18.30;59.40;;;;;;5008137;28;114462;-78
2023/08/07 08:07:43;;;;;;;1.60;0.65;;;18.20;59.30;;;;;;5007280;28;114952;-78
2023/08/07 08:10:10;;;;;;;1.42;0.55;;;18.30;59.40;;;;;;4989092;28;115936;-77
2023/08/07 08:12:37;;;;;;;0.57;0.40;;;18.30;59.60;;;;;;5007740;28;114387;-75
2023/08/07 08:15:05;;;;;;;2.38;1.00;;;18.40;59.40;;;;;;5006546;28;114272;-77
2023/08/07 08:17:32;;;;;;;1.33;0.68;;;18.50;59.50;;;;;;5006995;28;114869;-77
2023/08/07 08:19:59;;;;;;;2.67;1.20;;;18.60;58.90;;;;;;5007275;28;115049;-77
2023/08/07 08:22:26;;;;;;;1.90;0.90;;;18.60;59.20;;;;;;5006032;28;114119;-79
2023/08/07 08:24:53;;;;;;;2.17;1.00;;;18.60;58.70;;;;;;5007023;28;113998;-78
2023/08/07 08:27:21;;;;;;;2.03;0.90;;;18.60;59.00;;;;;;5010629;28;114181;-78
2023/08/07 08:29:48;;;;;;;1.65;0.60;;;18.80;58.70;;;;;;5005267;28;115326;-78
2023/08/07 08:32:15;;;;;;;1.80;0.63;;;18.80;58.20;;;;;;5007674;28;114331;-77
2023/08/07 08:34:42;;;;;;;1.73;1.00;;;18.80;58.30;;;;;;5007605;28;114129;-78
2023/08/07 08:37:11;;;;;;;1.63;0.80;;;18.70;58.50;;;;;;5004243;28;115833;-78
2023/08/07 08:39:38;;;;;;;1.60;0.60;;;18.70;58.30;;;;;;5005614;28;115605;-79
2023/08/07 08:42:05;;;;;;;1.85;0.73;;;18.80;58.10;;;;;;5006279;28;114118;-77
2023/08/07 08:44:32;;;;;;;2.42;1.10;;;18.80;58.40;;;;;;5007851;28;114058;-78
2023/08/07 08:46:59;;;;;;;1.88;1.05;;;18.80;58.30;;;;;;5005346;28;114984;-78
2023/08/07 08:49:30;;;;;;;2.40;1.10;;;18.90;58.00;;;;;;5004964;28;114730;-77
2023/08/07 08:51:58;;;;;;;4.10;2.00;;;18.80;57.80;;;;;;4989115;28;114069;-78
2023/08/07 08:54:25;;;;;;;3.10;1.88;;;18.80;58.00;;;;;;5005959;28;114295;-78
2023/08/07 08:56:54;;;;;;;2.08;0.93;;;18.80;57.90;;;;;;5004985;28;114905;-78
2023/08/07 08:59:21;;;;;;;1.13;0.55;;;18.80;57.70;;;;;;5004702;28;114784;-77
2023/08/07 09:01:50;;;;;;;1.90;0.73;;;18.80;57.20;;;;;;5005489;28;114282;-77
2023/08/07 09:04:17;;;;;;;2.05;1.10;;;18.80;57.40;;;;;;5005373;28;114363;-78
2023/08/07 09:06:44;;;;;;;2.65;0.90;;;18.80;57.70;;;;;;5004877;28;114968;-77
2023/08/07 09:09:12;;;;;;;2.28;1.10;;;18.90;57.40;;;;;;5006284;28;114695;-78
2023/08/07 09:11:40;;;;;;;0.98;0.50;;;19.00;57.50;;;;;;5005299;28;114251;-77
2023/08/07 09:14:09;;;;;;;1.58;0.68;;;19.20;57.50;;;;;;5005719;28;114585;-78
2023/08/07 09:16:36;;;;;;;2.45;1.20;;;19.30;56.90;;;;;;5003876;28;114837;-77
2023/08/07 09:19:03;;;;;;;1.88;0.50;;;19.40;56.60;;;;;;4987893;28;114618;-77
2023/08/07 09:21:31;;;;;;;3.17;1.25;;;19.50;56.10;;;;;;5006808;28;114283;-78
2023/08/07 09:23:59;;;;;;;2.20;0.90;;;19.50;56.00;;;;;;5005272;28;114341;-78
2023/08/07 09:26:26;;;;;;;1.60;0.82;;;19.50;56.00;;;;;;5005792;28;114936;-78
2023/08/07 09:28:53;;;;;;;2.58;1.33;;;19.40;55.50;;;;;;5005429;28;116270;-79
2023/08/07 09:31:21;;;;;;;1.60;0.70;;;19.40;56.10;;;;;;4988854;28;114271;-78
2023/08/07 09:33:49;;;;;;;4.63;1.40;;;19.30;55.90;;;;;;5005840;28;114178;-77
2023/08/07 09:36:17;;;;;;;2.17;1.05;;;19.30;56.00;;;;;;4970885;28;117687;-78
2023/08/07 09:38:49;;;;;;;2.53;1.27;;;19.20;56.30;;;;;;5003135;28;114970;-79
2023/08/07 09:41:20;;;;;;;1.65;0.60;;;19.10;56.80;;;;;;5004805;28;114190;-78
2023/08/07 09:43:47;;;;;;;2.08;1.23;;;19.20;56.60;;;;;;4988900;28;114446;-78
2023/08/07 09:46:16;;;;;;;1.85;1.00;;;19.20;56.70;;;;;;5004393;28;117825;-78
2023/08/07 09:48:43;;;;;;;1.05;0.60;;;19.20;56.50;;;;;;5004183;28;114768;-78
2023/08/07 09:51:10;;;;;;;3.40;0.95;;;19.10;56.70;;;;;;5004839;28;114549;-77
2023/08/07 09:53:38;;;;;;;1.90;0.73;;;19.00;57.00;;;;;;5005103;28;114515;-78
2023/08/07 09:56:05;;;;;;;3.58;0.90;;;19.00;56.80;;;;;;5005702;28;115223;-78
2023/08/07 09:58:32;;;;;;;2.20;0.95;;;19.00;57.20;;;;;;4991893;28;114700;-77
2023/08/07 10:01:02;;;;;;;1.20;0.68;;;19.00;57.50;;;;;;5012373;28;114146;-78
2023/08/07 10:03:30;;;;;;;1.80;0.70;;;19.10;57.90;;;;;;5006768;28;114696;-79
2023/08/07 10:05:57;;;;;;;2.75;1.20;;;19.10;57.70;;;;;;5003562;28;115520;-78
2023/08/07 10:08:24;;;;;;;2.80;1.13;;;19.20;57.50;;;;;;5004057;28;114665;-78
2023/08/07 10:10:51;;;;;;;1.70;0.80;;;19.20;57.50;;;;;;5010215;28;114225;-78
2023/08/07 10:13:18;;;;;;;2.47;0.80;;;19.30;57.40;;;;;;5009308;28;114220;-77
2023/08/07 10:15:54;;;;;;;1.63;1.13;;;19.30;57.30;;;;;;5005536;28;114947;-78
2023/08/07 10:18:21;;;;;;;1.92;0.95;;;19.20;57.70;;;;;;5004075;28;114725;-79
2023/08/07 10:20:48;;;;;;;1.73;0.70;;;19.10;57.60;;;;;;5004842;28;114316;-78
2023/08/07 10:23:17;;;;;;;1.50;0.60;;;19.00;58.00;;;;;;5005031;28;114303;-78
2023/08/07 10:25:45;;;;;;;1.35;0.75;;;19.00;57.50;;;;;;4987595;28;114871;-78
2023/08/07 10:28:14;;;;;;;1.40;0.77;;;18.80;58.00;;;;;;4987435;28;114632;-78
2023/08/07 10:30:42;;;;;;;3.50;0.82;;;18.80;58.30;;;;;;5004110;28;114505;-77
2023/08/07 10:33:09;;;;;;;1.42;0.70;;;18.80;58.30;;;;;;4971594;28;114753;-79
2023/08/07 10:35:36;;;;;;;0.90;0.50;;;18.80;58.60;;;;;;5003398;28;115433;-77
2023/08/07 10:38:10;;;;;;;1.83;0.70;;;18.70;58.60;;;;;;5004818;28;114785;-78
2023/08/07 10:41:08;;;;;;;1.50;0.77;;;18.60;59.30;;;;;;4988187;28;114444;-79
2023/08/07 10:43:42;;;;;;;1.48;0.57;;;18.40;59.20;;;;;;5005571;28;114302;-78
2023/08/07 10:46:14;;;;;;;1.20;0.70;;;18.30;60.20;;;;;;4986942;28;115102;-79
2023/08/07 10:48:54;;;;;;;2.28;1.10;;;18.30;60.70;;;;;;4987359;28;114884;-78
2023/08/07 10:51:21;;;;;;;1.90;0.80;;;18.30;60.20;;;;;;5006708;28;114234;-78
2023/08/07 10:53:52;;;;;;;2.50;0.70;;;18.30;60.30;;;;;;5007833;28;114648;-78
2023/08/07 10:56:41;;;;;;;1.80;0.80;;;18.30;60.70;;;;;;5007671;28;115081;-79
2023/08/07 10:59:10;;;;;;;1.52;0.70;;;18.40;60.20;;;;;;5006984;28;114977;-76
2023/08/07 11:01:41;;;;;;;2.08;0.77;;;18.40;60.70;;;;;;5007767;28;114346;-78
2023/08/07 11:04:13;;;;;;;1.73;0.82;;;18.40;60.70;;;;;;5008286;28;114412;-78
2023/08/07 11:06:42;;;;;;;5.55;1.15;;;18.40;61.10;;;;;;5006591;28;115987;-79
2023/08/07 11:09:09;;;;;;;1.50;0.68;;;18.50;61.00;;;;;;5007574;28;114544;-76
2023/08/07 11:11:43;;;;;;;2.05;1.00;;;18.50;60.80;;;;;;5008603;28;114130;-78
2023/08/07 11:14:17;;;;;;;2.13;0.80;;;18.50;60.60;;;;;;5009291;28;114308;-78
2023/08/07 11:16:46;;;;;;;2.33;0.80;;;18.50;60.70;;;;;;5007281;28;115090;-79
2023/08/07 11:19:14;;;;;;;1.65;0.73;;;18.40;60.80;;;;;;5007525;28;114605;-76
2023/08/07 11:21:42;;;;;;;1.30;0.60;;;18.40;60.90;;;;;;4989982;28;114323;-78
2023/08/07 11:24:12;;;;;;;1.70;0.88;;;18.40;61.50;;;;;;5008213;28;114297;-79
2023/08/07 11:26:39;;;;;;;2.42;1.00;;;18.50;61.10;;;;;;4989810;28;117774;-77
2023/08/07 11:29:07;;;;;;;1.90;0.80;;;18.50;60.80;;;;;;5007158;28;114787;-78
2023/08/07 11:31:34;;;;;;;2.60;0.85;;;18.50;61.00;;;;;;5007771;28;114268;-77
2023/08/07 11:34:02;;;;;;;2.50;0.80;;;18.50;61.00;;;;;;5007988;28;114392;-77
2023/08/07 11:36:31;;;;;;;2.85;1.30;;;18.40;61.10;;;;;;4989132;28;116524;-78
2023/08/07 11:38:58;;;;;;;3.28;1.40;;;18.20;60.50;;;;;;5006616;28;114641;-76
2023/08/07 11:41:25;;;;;;;3.55;1.50;;;18.00;60.50;;;;;;5008478;28;114432;-78
2023/08/07 11:43:52;;;;;;;3.30;1.70;;;18.10;59.90;;;;;;5007095;28;114490;-78
2023/08/07 11:46:19;;;;;;;3.85;1.83;;;18.10;59.80;;;;;;5006828;28;114993;-77
2023/08/07 11:48:47;;;;;;;2.83;1.30;;;18.10;59.80;;;;;;5006339;28;114777;-78
2023/08/07 11:51:14;;;;;;;3.78;1.30;;;18.20;60.20;;;;;;5007197;28;114240;-78
2023/08/07 11:53:41;;;;;;;3.75;2.10;;;18.20;60.10;;;;;;5006552;28;114139;-79
2023/08/07 11:56:15;;;;;;;3.30;1.58;;;18.30;59.00;;;;;;5005831;28;116225;-77
2023/08/07 11:58:45;;;;;;;;;;;18.30;59.70;;;;;;5007516;28;115254;-79
2023/08/07 12:01:16;;;;;;;3.13;1.55;;;18.30;59.80;;;;;;5007557;28;114273;-77
2023/08/07 12:03:53;;;;;;;3.58;2.05;;;18.30;59.80;;;;;;5006447;28;114615;-78
2023/08/07 12:06:20;;;;;;;3.30;1.85;;;18.40;59.60;;;;;;5005789;28;115375;-79
2023/08/07 12:08:50;;;;;;;4.05;1.98;;;18.40;59.60;;;;;;5006586;28;114678;-79
2023/08/07 12:11:18;;;;;;;3.35;1.65;;;18.50;59.50;;;;;;5007418;28;114400;-79
2023/08/07 12:13:45;;;;;;;4.68;1.80;;;18.60;59.40;;;;;;5006185;28;114471;-78
2023/08/07 12:16:15;;;;;;;4.70;1.77;;;18.60;59.20;;;;;;5004936;28;117003;-78
2023/08/07 12:18:46;;;;;;;3.85;1.65;;;18.60;59.20;;;;;;4989185;28;114631;-79
2023/08/07 12:21:14;;;;;;;2.90;1.70;;;18.70;59.10;;;;;;5006502;28;114243;-77
2023/08/07 12:23:41;;;;;;;4.15;1.88;;;18.60;59.00;;;;;;4990039;28;114315;-77
2023/08/07 12:26:11;;;;;;;4.63;1.70;;;18.60;59.00;;;;;;5005528;28;115441;-77
2023/08/07 12:28:38;;;;;;;3.75;1.80;;;18.50;59.00;;;;;;5005666;28;114725;-77
2023/08/07 12:31:05;;;;;;;3.38;1.70;;;18.50;59.20;;;;;;5007496;28;114064;-78
2023/08/07 12:33:37;;;;;;;4.65;1.90;;;18.50;58.80;;;;;;4989895;28;115081;-76
2023/08/07 12:36:05;;;;;;;3.10;1.60;;;18.50;58.60;;;;;;5004836;28;116101;-78
2023/08/07 12:38:44;;;;;;;5.47;2.03;;;18.50;58.60;;;;;;5007851;28;114681;-77
2023/08/07 12:41:14;;;;;;;4.35;1.45;;;18.30;59.00;;;;;;5007466;28;114198;-78
2023/08/07 12:43:44;;;;;;;3.60;1.70;;;18.30;59.10;;;;;;5006544;28;114561;-77